EST,Max TemperatureF,Mean TemperatureF,Min TemperatureF,Max Dew PointF,MeanDew PointF,Min DewpointF,Max Humidity, Mean Humidity, Min Humidity, Max Sea Level PressureIn, Mean Sea Level PressureIn, Min Sea Level PressureIn, Max VisibilityMiles, Mean VisibilityMiles, Min VisibilityMiles, Max Wind SpeedMPH, Mean Wind SpeedMPH, Max Gust SpeedMPH,PrecipitationIn, CloudCover, Events, WindDirDegrees
2013-2-1,20,18,15,12,9,5,80,71,62,30.29,30.16,29.94,10,2,0,21,13,29,0.01,8,Snow,269
2013-2-2,24,14,4,19,13,-1,88,75,61,30.17,30.06,29.98,10,3,0,21,11,25,0.19,7,Fog-Snow,290
2013-2-3,23,15,6,16,12,2,84,72,59,30.04,29.93,29.88,10,4,0,16,8,24,0.02,8,Snow,278
2013-2-4,26,18,10,18,14,5,84,70,55,30.03,29.96,29.91,10,5,1,10,6,15,0.03,7,Snow,35
2013-2-5,32,17,2,26,18,-3,85,77,69,30.04,29.86,29.78,10,5,0,23,7,29,0.03,7,Snow,225
2013-2-6,34,25,15,21,18,13,84,70,56,30.27,30.20,30.05,10,9,6,15,3,17,0.00,6,,163
2013-2-7,36,33,29,31,27,20,89,76,63,30.21,30.01,29.86,10,3,0,13,8,15,0.70,8,Fog-Rain-Snow,89
2013-2-8,35,25,15,29,23,11,85,73,61,30.40,30.10,29.86,10,6,1,14,7,22,0.04,6,Snow,352
2013-2-9,34,18,1,20,6,-6,88,72,56,30.45,30.37,30.20,10,4,0,12,2,14,0.00,2,Fog,119
2013-2-10,44,29,13,40,27,9,89,74,59,30.19,29.87,29.54,10,9,5,25,10,36,0.12,6,Rain,118
2013-2-11,48,41,33,41,29,21,83,72,61,29.94,29.66,29.52,10,6,0,37,23,45,0.07,8,Fog-Rain-Snow,241
2013-2-12,33,31,29,23,22,21,75,68,61,30.07,30.01,29.95,10,10,9,20,11,28,T,8,,261
2013-2-13,39,31,23,29,24,19,81,73,64,29.94,29.80,29.73,10,8,1,16,6,21,0.00,3,,196
2013-2-14,41,33,25,34,29,21,85,75,65,29.94,29.76,29.64,10,4,0,28,12,36,0.10,7,Fog-Rain-Snow,246
2013-2-15,31,27,23,25,17,12,85,69,53,30.18,30.08,29.93,10,7,1,14,6,18,T,8,Snow,325
2013-2-16,25,19,13,19,13,6,84,72,59,30.16,30.08,30.05,10,3,0,17,7,24,0.16,7,Snow,312
2013-2-17,27,11,-6,14,3,-9,80,65,50,30.26,30.19,30.12,10,9,1,10,4,12,0.00,3,,148
2013-2-18,48,34,20,42,28,10,83,67,50,30.14,29.73,29.42,10,9,6,23,14,32,0.24,5,Rain,155
2013-2-19,45,32,19,43,17,10,100,81,62,30.04,29.78,29.39,10,2,0,32,19,40,0.11,8,Rain-Snow,275
2013-2-20,25,22,19,18,13,10,73,67,60,30.34,30.15,30.01,10,3,1,16,12,24,0.01,8,Snow,315
2013-2-21,28,26,23,17,15,13,68,64,60,30.40,30.33,30.17,10,10,10,21,9,26,0.00,6,,44
2013-2-22,36,30,23,31,24,15,82,75,68,30.15,29.91,29.82,10,4,0,21,13,29,T,8,Rain-Snow,126
2013-2-23,33,31,29,27,22,19,78,71,63,29.94,29.89,29.84,10,6,2,22,14,28,0.03,8,Snow,247
2013-2-24,37,29,20,27,24,16,88,74,59,30.18,30.06,29.90,10,10,5,12,6,16,T,5,Snow,286
2013-2-25,41,29,16,25,17,10,85,65,45,30.24,30.17,30.10,10,5,0,9,4,12,0.00,2,Fog,85
2013-2-26,36,33,30,35,28,20,100,78,56,30.08,29.67,29.52,10,4,0,22,14,35,0.09,6,Fog-Rain-Snow,62
2013-2-27,39,37,35,34,32,30,92,87,82,29.64,29.53,29.48,10,4,1,12,4,18,0.50,8,Snow,25
2013-2-28,39,36,32,31,29,22,82,73,64,30.03,29.80,29.64,10,9,2,15,7,22,0.02,8,Snow,343